sensor_id;sensor_type;location;lat;lon;timestamp;pressure;altitude;pressure_sealevel;temperature;humidity
46642;BME280;32370;41.864;-88.124;2023-02-21T02:00:44;97682.57;;;3.35;67.96
46642;BME280;32370;41.864;-88.124;2023-02-21T02:03:15;97684.40;;;1.22;67.92
46642;BME280;32370;41.864;-88.124;2023-02-21T02:05:49;97681.42;;;0.90;67.86
46642;BME280;32370;41.864;-88.124;2023-02-21T02:08:20;97680.09;;;0.69;68.23
46642;BME280;32370;41.864;-88.124;2023-02-21T02:10:55;97679.88;;;0.61;67.92
46642;BME280;32370;41.864;-88.124;2023-02-21T02:13:34;97676.24;;;0.59;68.05
46642;BME280;32370;41.864;-88.124;2023-02-21T02:16:10;97675.61;;;0.73;68.03
46642;BME280;32370;41.864;-88.124;2023-02-21T02:18:50;97674.79;;;0.66;67.89
46642;BME280;32370;41.864;-88.124;2023-02-21T02:21:44;97674.82;;;0.57;67.70
46642;BME280;32370;41.864;-88.124;2023-02-21T02:25:00;97674.27;;;1.78;68.37
46642;BME280;32370;41.864;-88.124;2023-02-21T02:27:48;97672.05;;;0.31;68.62
46642;BME280;32370;41.864;-88.124;2023-02-21T02:30:51;97667.14;;;0.58;67.88
46642;BME280;32370;41.864;-88.124;2023-02-21T02:34:28;97667.80;;;2.11;68.33
46642;BME280;32370;41.864;-88.124;2023-02-21T02:37:01;97667.43;;;0.42;68.34
46642;BME280;32370;41.864;-88.124;2023-02-21T02:39:39;97662.38;;;0.48;68.31
46642;BME280;32370;41.864;-88.124;2023-02-21T02:42:13;97660.58;;;0.64;68.28
46642;BME280;32370;41.864;-88.124;2023-02-21T02:44:49;97662.81;;;0.63;67.86
46642;BME280;32370;41.864;-88.124;2023-02-21T02:47:22;97661.19;;;0.70;67.86
46642;BME280;32370;41.864;-88.124;2023-02-21T02:49:51;97660.38;;;0.70;67.67
46642;BME280;32370;41.864;-88.124;2023-02-21T02:52:20;97656.49;;;0.81;67.56
46642;BME280;32370;41.864;-88.124;2023-02-21T02:54:57;97652.98;;;0.67;68.14
46642;BME280;32370;41.864;-88.124;2023-02-21T02:57:25;97653.16;;;0.70;68.09
46642;BME280;32370;41.864;-88.124;2023-02-21T02:59:55;97648.54;;;2.13;67.66
46642;BME280;32370;41.864;-88.124;2023-02-21T03:02:35;97643.97;;;1.90;68.04
46642;BME280;32370;41.864;-88.124;2023-02-21T03:05:18;97636.64;;;2.60;67.79
46642;BME280;32370;41.864;-88.124;2023-02-21T03:07:58;97636.95;;;2.34;67.91
46642;BME280;32370;41.864;-88.124;2023-02-21T03:10:36;97631.26;;;2.78;68.11
46642;BME280;32370;41.864;-88.124;2023-02-21T03:13:14;97631.58;;;2.74;68.22
46642;BME280;32370;41.864;-88.124;2023-02-21T03:15:49;97630.68;;;2.70;68.19
46642;BME280;32370;41.864;-88.124;2023-02-21T03:18:21;97630.58;;;2.72;68.28
46642;BME280;32370;41.864;-88.124;2023-02-21T03:20:56;97630.16;;;2.40;69.18
46642;BME280;32370;41.864;-88.124;2023-02-21T03:23:27;97633.72;;;2.61;68.54
46642;BME280;32370;41.864;-88.124;2023-02-21T03:25:58;97632.10;;;2.58;68.82
46642;BME280;32370;41.864;-88.124;2023-02-21T03:28:28;97629.23;;;2.66;69.02
46642;BME280;32370;41.864;-88.124;2023-02-21T03:30:59;97631.51;;;2.54;68.66
46642;BME280;32370;41.864;-88.124;2023-02-21T03:33:29;97635.30;;;2.75;68.89
46642;BME280;32370;41.864;-88.124;2023-02-21T03:35:59;97635.32;;;2.67;68.99
46642;BME280;32370;41.864;-88.124;2023-02-21T03:38:30;97630.68;;;2.45;69.07
46642;BME280;32370;41.864;-88.124;2023-02-21T03:40:58;97627.37;;;2.75;69.07
46642;BME280;32370;41.864;-88.124;2023-02-21T03:43:26;97621.50;;;2.89;69.02
46642;BME280;32370;41.864;-88.124;2023-02-21T03:45:55;97616.16;;;2.68;70.16
46642;BME280;32370;41.864;-88.124;2023-02-21T03:48:23;97613.02;;;2.42;69.55
46642;BME280;32370;41.864;-88.124;2023-02-21T03:50:51;97607.46;;;2.76;69.64
46642;BME280;32370;41.864;-88.124;2023-02-21T03:53:19;97602.64;;;2.66;69.31
46642;BME280;32370;41.864;-88.124;2023-02-21T03:55:47;97595.52;;;2.73;69.09
46642;BME280;32370;41.864;-88.124;2023-02-21T03:58:15;97592.68;;;2.90;69.29
46642;BME280;32370;41.864;-88.124;2023-02-21T04:00:43;97591.44;;;2.60;69.36
46642;BME280;32370;41.864;-88.124;2023-02-21T04:03:11;97589.72;;;2.49;69.73
46642;BME280;32370;41.864;-88.124;2023-02-21T04:05:40;97589.75;;;2.47;69.74
46642;BME280;32370;41.864;-88.124;2023-02-21T04:08:07;97589.90;;;2.33;70.14
46642;BME280;32370;41.864;-88.124;2023-02-21T04:10:35;97591.53;;;2.29;70.25
46642;BME280;32370;41.864;-88.124;2023-02-21T04:13:03;97589.43;;;2.14;70.28
46642;BME280;32370;41.864;-88.124;2023-02-21T04:15:31;97589.56;;;2.01;71.68
46642;BME280;32370;41.864;-88.124;2023-02-21T04:17:59;97578.98;;;2.40;71.67
46642;BME280;32370;41.864;-88.124;2023-02-21T04:20:27;97576.18;;;2.35;71.68
46642;BME280;32370;41.864;-88.124;2023-02-21T04:22:55;97576.76;;;1.63;73.74
46642;BME280;32370;41.864;-88.124;2023-02-21T04:25:23;97574.70;;;2.03;73.44
46642;BME280;32370;41.864;-88.124;2023-02-21T04:27:51;97572.11;;;1.91;73.60
46642;BME280;32370;41.864;-88.124;2023-02-21T04:30:19;97574.00;;;2.07;72.99
46642;BME280;32370;41.864;-88.124;2023-02-21T04:32:47;97573.45;;;2.11;73.45
46642;BME280;32370;41.864;-88.124;2023-02-21T04:35:15;97569.39;;;1.93;75.00
46642;BME280;32370;41.864;-88.124;2023-02-21T04:37:42;97564.96;;;1.69;76.72
46642;BME280;32370;41.864;-88.124;2023-02-21T04:40:10;97559.69;;;1.56;77.27
46642;BME280;32370;41.864;-88.124;2023-02-21T04:42:38;97562.08;;;1.79;76.23
46642;BME280;32370;41.864;-88.124;2023-02-21T04:45:07;97560.45;;;1.76;76.53
46642;BME280;32370;41.864;-88.124;2023-02-21T04:47:35;97565.68;;;2.00;75.95
46642;BME280;32370;41.864;-88.124;2023-02-21T04:50:04;97557.75;;;2.12;76.16
46642;BME280;32370;41.864;-88.124;2023-02-21T04:52:32;97545.01;;;2.02;77.41
46642;BME280;32370;41.864;-88.124;2023-02-21T04:55:00;97542.95;;;2.06;78.69
46642;BME280;32370;41.864;-88.124;2023-02-21T04:57:28;97540.65;;;2.09;78.11
46642;BME280;32370;41.864;-88.124;2023-02-21T04:59:58;97539.89;;;1.89;79.88
46642;BME280;32370;41.864;-88.124;2023-02-21T05:02:27;97538.16;;;2.08;80.54
46642;BME280;32370;41.864;-88.124;2023-02-21T05:04:55;97540.43;;;2.09;79.96
46642;BME280;32370;41.864;-88.124;2023-02-21T05:07:22;97539.22;;;2.05;81.31
46642;BME280;32370;41.864;-88.124;2023-02-21T05:09:51;97538.87;;;1.95;82.12
46642;BME280;32370;41.864;-88.124;2023-02-21T05:12:19;97539.84;;;2.07;81.78
46642;BME280;32370;41.864;-88.124;2023-02-21T05:14:47;97528.16;;;2.19;81.62
46642;BME280;32370;41.864;-88.124;2023-02-21T05:17:15;97528.47;;;1.99;82.60
46642;BME280;32370;41.864;-88.124;2023-02-21T05:19:45;97520.03;;;2.12;83.01
46642;BME280;32370;41.864;-88.124;2023-02-21T05:22:13;97517.63;;;2.05;82.54
46642;BME280;32370;41.864;-88.124;2023-02-21T05:24:42;97508.81;;;2.15;83.98
46642;BME280;32370;41.864;-88.124;2023-02-21T05:27:11;97494.40;;;1.83;84.43
46642;BME280;32370;41.864;-88.124;2023-02-21T05:29:39;97489.66;;;2.04;83.66
46642;BME280;32370;41.864;-88.124;2023-02-21T05:32:07;97477.20;;;1.89;84.16
46642;BME280;32370;41.864;-88.124;2023-02-21T05:34:34;97472.30;;;1.68;84.92
46642;BME280;32370;41.864;-88.124;2023-02-21T05:37:02;97473.19;;;1.71;86.13
46642;BME280;32370;41.864;-88.124;2023-02-21T05:39:30;97468.69;;;1.21;86.43
46642;BME280;32370;41.864;-88.124;2023-02-21T05:41:58;97468.57;;;1.57;86.86
46642;BME280;32370;41.864;-88.124;2023-02-21T05:44:26;97465.50;;;1.09;87.04
46642;BME280;32370;41.864;-88.124;2023-02-21T05:46:54;97465.22;;;1.23;87.69
46642;BME280;32370;41.864;-88.124;2023-02-21T05:49:23;97466.67;;;1.28;88.03
46642;BME280;32370;41.864;-88.124;2023-02-21T05:51:51;97467.43;;;1.27;88.14
46642;BME280;32370;41.864;-88.124;2023-02-21T05:54:20;97465.67;;;1.31;88.29
46642;BME280;32370;41.864;-88.124;2023-02-21T05:56:50;97468.40;;;1.22;89.20
46642;BME280;32370;41.864;-88.124;2023-02-21T05:59:21;97463.24;;;1.22;89.50
46642;BME280;32370;41.864;-88.124;2023-02-21T06:01:52;97466.93;;;1.20;89.75
46642;BME280;32370;41.864;-88.124;2023-02-21T06:04:20;97470.81;;;1.24;90.00
46642;BME280;32370;41.864;-88.124;2023-02-21T06:06:48;97470.48;;;1.68;90.12
46642;BME280;32370;41.864;-88.124;2023-02-21T06:09:16;97468.12;;;1.14;90.75
46642;BME280;32370;41.864;-88.124;2023-02-21T06:11:45;97461.38;;;1.74;90.65
46642;BME280;32370;41.864;-88.124;2023-02-21T06:14:15;97463.69;;;1.51;90.64
46642;BME280;32370;41.864;-88.124;2023-02-21T06:16:44;97465.08;;;1.75;90.71
46642;BME280;32370;41.864;-88.124;2023-02-21T06:19:14;97463.15;;;1.74;91.08
46642;BME280;32370;41.864;-88.124;2023-02-21T06:21:43;97461.83;;;1.45;91.09
46642;BME280;32370;41.864;-88.124;2023-02-21T06:24:11;97453.85;;;1.20;91.84
46642;BME280;32370;41.864;-88.124;2023-02-21T06:26:40;97454.54;;;1.48;92.11
46642;BME280;32370;41.864;-88.124;2023-02-21T06:29:08;97444.93;;;1.81;91.75
46642;BME280;32370;41.864;-88.124;2023-02-21T06:31:37;97443.45;;;1.96;91.48
46642;BME280;32370;41.864;-88.124;2023-02-21T06:34:06;97445.37;;;1.36;91.92
46642;BME280;32370;41.864;-88.124;2023-02-21T06:36:34;97440.21;;;1.67;91.89
46642;BME280;32370;41.864;-88.124;2023-02-21T06:39:02;97440.58;;;1.94;91.91
46642;BME280;32370;41.864;-88.124;2023-02-21T06:41:30;97442.68;;;1.76;91.58
46642;BME280;32370;41.864;-88.124;2023-02-21T06:43:58;97445.03;;;1.63;90.87
46642;BME280;32370;41.864;-88.124;2023-02-21T06:46:28;97436.25;;;1.52;91.33
46642;BME280;32370;41.864;-88.124;2023-02-21T06:48:56;97435.80;;;1.61;90.92
46642;BME280;32370;41.864;-88.124;2023-02-21T06:51:25;97433.01;;;1.48;91.47
46642;BME280;32370;41.864;-88.124;2023-02-21T06:53:54;97433.16;;;1.44;91.73
46642;BME280;32370;41.864;-88.124;2023-02-21T06:56:23;97434.43;;;1.59;91.46
46642;BME280;32370;41.864;-88.124;2023-02-21T06:58:52;97441.36;;;1.68;91.52
46642;BME280;32370;41.864;-88.124;2023-02-21T07:01:20;97447.72;;;1.72;91.12
46642;BME280;32370;41.864;-88.124;2023-02-21T07:03:48;97446.16;;;1.51;91.60
46642;BME280;32370;41.864;-88.124;2023-02-21T07:06:16;97442.59;;;1.77;90.93
46642;BME280;32370;41.864;-88.124;2023-02-21T07:08:44;97433.27;;;1.70;90.85
46642;BME280;32370;41.864;-88.124;2023-02-21T07:11:13;97443.29;;;1.65;91.30
46642;BME280;32370;41.864;-88.124;2023-02-21T07:13:41;97449.98;;;1.76;91.08
46642;BME280;32370;41.864;-88.124;2023-02-21T07:16:08;97457.64;;;1.58;91.16
46642;BME280;32370;41.864;-88.124;2023-02-21T07:18:36;97460.22;;;1.54;91.73
46642;BME280;32370;41.864;-88.124;2023-02-21T07:21:05;97462.04;;;1.41;93.03
46642;BME280;32370;41.864;-88.124;2023-02-21T07:23:33;97453.95;;;1.56;93.75
46642;BME280;32370;41.864;-88.124;2023-02-21T07:26:01;97450.59;;;1.35;93.58
46642;BME280;32370;41.864;-88.124;2023-02-21T07:28:29;97444.63;;;1.39;93.06
46642;BME280;32370;41.864;-88.124;2023-02-21T07:30:57;97444.99;;;1.44;93.50
46642;BME280;32370;41.864;-88.124;2023-02-21T07:33:26;97443.74;;;1.49;94.08
46642;BME280;32370;41.864;-88.124;2023-02-21T07:35:54;97445.46;;;1.32;93.97
46642;BME280;32370;41.864;-88.124;2023-02-21T07:38:23;97447.60;;;1.62;94.51
46642;BME280;32370;41.864;-88.124;2023-02-21T07:40:54;97460.53;;;1.10;94.38
46642;BME280;32370;41.864;-88.124;2023-02-21T07:43:24;97465.11;;;1.41;93.46
46642;BME280;32370;41.864;-88.124;2023-02-21T07:45:53;97463.61;;;1.53;94.05
46642;BME280;32370;41.864;-88.124;2023-02-21T07:48:21;97465.15;;;1.26;93.29
46642;BME280;32370;41.864;-88.124;2023-02-21T07:50:49;97457.69;;;1.48;93.02
46642;BME280;32370;41.864;-88.124;2023-02-21T07:53:18;97465.46;;;1.19;93.30
46642;BME280;32370;41.864;-88.124;2023-02-21T07:55:46;97461.60;;;1.44;92.59
46642;BME280;32370;41.864;-88.124;2023-02-21T07:58:14;97465.24;;;1.36;92.69
46642;BME280;32370;41.864;-88.124;2023-02-21T08:00:42;97472.44;;;1.25;93.32
46642;BME280;32370;41.864;-88.124;2023-02-21T08:03:12;97468.48;;;1.07;92.57
46642;BME280;32370;41.864;-88.124;2023-02-21T08:05:40;97469.23;;;1.19;91.72
46642;BME280;32370;41.864;-88.124;2023-02-21T08:08:08;97483.83;;;1.04;91.59
46642;BME280;32370;41.864;-88.124;2023-02-21T08:10:36;97478.47;;;1.13;91.89
46642;BME280;32370;41.864;-88.124;2023-02-21T08:13:04;97475.80;;;1.05;92.30
46642;BME280;32370;41.864;-88.124;2023-02-21T08:15:32;97475.12;;;0.98;92.09
46642;BME280;32370;41.864;-88.124;2023-02-21T08:18:00;97475.79;;;0.95;92.64
46642;BME280;32370;41.864;-88.124;2023-02-21T08:20:28;97473.92;;;0.91;92.11
46642;BME280;32370;41.864;-88.124;2023-02-21T08:22:56;97472.55;;;0.64;92.96
46642;BME280;32370;41.864;-88.124;2023-02-21T08:25:24;97478.24;;;0.86;91.53
46642;BME280;32370;41.864;-88.124;2023-02-21T08:27:52;97483.91;;;0.73;90.04
46642;BME280;32370;41.864;-88.124;2023-02-21T08:30:20;97490.70;;;0.62;88.98
46642;BME280;32370;41.864;-88.124;2023-02-21T08:32:48;97492.85;;;0.73;89.23
46642;BME280;32370;41.864;-88.124;2023-02-21T08:35:18;97479.85;;;0.28;89.45
46642;BME280;32370;41.864;-88.124;2023-02-21T08:37:47;97476.31;;;0.15;90.01
46642;BME280;32370;41.864;-88.124;2023-02-21T08:40:18;97484.85;;;0.34;90.60
46642;BME280;32370;41.864;-88.124;2023-02-21T08:42:49;97481.75;;;0.39;89.44
46642;BME280;32370;41.864;-88.124;2023-02-21T08:45:19;97491.35;;;0.21;87.28
46642;BME280;32370;41.864;-88.124;2023-02-21T08:47:48;97491.05;;;-0.04;87.30
46642;BME280;32370;41.864;-88.124;2023-02-21T08:50:17;97492.50;;;-0.04;87.27
46642;BME280;32370;41.864;-88.124;2023-02-21T08:52:46;97495.25;;;-0.14;87.28
46642;BME280;32370;41.864;-88.124;2023-02-21T08:55:16;97503.20;;;0.16;87.27
46642;BME280;32370;41.864;-88.124;2023-02-21T08:57:46;97507.17;;;0.15;86.32
46642;BME280;32370;41.864;-88.124;2023-02-21T09:00:16;97509.42;;;-0.29;86.68
46642;BME280;32370;41.864;-88.124;2023-02-21T09:02:44;97510.71;;;-0.25;86.13
46642;BME280;32370;41.864;-88.124;2023-02-21T09:05:14;97504.55;;;-0.17;85.48
46642;BME280;32370;41.864;-88.124;2023-02-21T09:07:42;97505.42;;;-0.27;85.61
46642;BME280;32370;41.864;-88.124;2023-02-21T09:10:11;97510.79;;;-0.39;85.76
46642;BME280;32370;41.864;-88.124;2023-02-21T09:12:38;97516.58;;;-0.66;84.52
46642;BME280;32370;41.864;-88.124;2023-02-21T09:15:07;97512.31;;;-0.43;83.75
46642;BME280;32370;41.864;-88.124;2023-02-21T09:17:35;97503.01;;;-0.68;83.46
46642;BME280;32370;41.864;-88.124;2023-02-21T09:20:06;97510.50;;;-0.66;83.43
46642;BME280;32370;41.864;-88.124;2023-02-21T09:22:35;97504.46;;;-0.68;83.65
46642;BME280;32370;41.864;-88.124;2023-02-21T09:25:03;97504.47;;;-0.49;83.11
46642;BME280;32370;41.864;-88.124;2023-02-21T09:27:31;97510.22;;;-0.78;82.69
46642;BME280;32370;41.864;-88.124;2023-02-21T09:29:59;97513.89;;;-0.80;82.42
46642;BME280;32370;41.864;-88.124;2023-02-21T09:32:27;97524.73;;;-1.07;83.58
46642;BME280;32370;41.864;-88.124;2023-02-21T09:34:55;97531.02;;;-1.01;83.21
46642;BME280;32370;41.864;-88.124;2023-02-21T09:37:23;97532.79;;;-0.79;83.94
46642;BME280;32370;41.864;-88.124;2023-02-21T09:39:51;97535.76;;;-1.33;84.27
46642;BME280;32370;41.864;-88.124;2023-02-21T09:42:27;97532.92;;;-1.12;84.30
46642;BME280;32370;41.864;-88.124;2023-02-21T09:44:56;97534.47;;;-0.90;82.11
46642;BME280;32370;41.864;-88.124;2023-02-21T09:47:28;97535.53;;;-1.02;80.67
46642;BME280;32370;41.864;-88.124;2023-02-21T09:50:00;97526.62;;;-1.11;80.16
46642;BME280;32370;41.864;-88.124;2023-02-21T09:52:32;97524.78;;;-1.06;80.39
46642;BME280;32370;41.864;-88.124;2023-02-21T09:55:07;97528.57;;;-1.23;80.18
46642;BME280;32370;41.864;-88.124;2023-02-21T09:57:42;97532.38;;;-1.44;80.30
46642;BME280;32370;41.864;-88.124;2023-02-21T10:00:17;97544.68;;;-1.40;79.99
46642;BME280;32370;41.864;-88.124;2023-02-21T10:02:55;97549.63;;;-1.28;78.51
46642;BME280;32370;41.864;-88.124;2023-02-21T10:05:35;97553.23;;;-1.30;76.70
46642;BME280;32370;41.864;-88.124;2023-02-21T10:08:12;97561.16;;;-1.09;74.18
46642;BME280;32370;41.864;-88.124;2023-02-21T10:10:46;97557.22;;;-1.44;72.85
46642;BME280;32370;41.864;-88.124;2023-02-21T10:13:28;97553.91;;;-1.27;70.92
46642;BME280;32370;41.864;-88.124;2023-02-21T10:16:02;97560.67;;;-1.58;71.05
46642;BME280;32370;41.864;-88.124;2023-02-21T10:18:38;97564.00;;;-1.68;70.56
46642;BME280;32370;41.864;-88.124;2023-02-21T10:21:13;97572.67;;;-1.72;69.98
46642;BME280;32370;41.864;-88.124;2023-02-21T10:23:44;97583.80;;;-1.54;71.08
46642;BME280;32370;41.864;-88.124;2023-02-21T10:26:15;97580.90;;;-1.97;71.62
46642;BME280;32370;41.864;-88.124;2023-02-21T10:28:45;97581.93;;;-2.07;70.83
46642;BME280;32370;41.864;-88.124;2023-02-21T10:31:19;97585.55;;;-1.93;69.19
46642;BME280;32370;41.864;-88.124;2023-02-21T10:33:50;97584.54;;;-2.03;68.32
46642;BME280;32370;41.864;-88.124;2023-02-21T10:36:20;97587.82;;;-2.19;67.89
46642;BME280;32370;41.864;-88.124;2023-02-21T10:38:54;97598.68;;;-1.78;67.69
46642;BME280;32370;41.864;-88.124;2023-02-21T10:41:27;97598.57;;;-1.84;67.76
46642;BME280;32370;41.864;-88.124;2023-02-21T10:44:00;97603.54;;;-2.21;68.45
46642;BME280;32370;41.864;-88.124;2023-02-21T10:46:34;97613.49;;;-2.14;67.63
46642;BME280;32370;41.864;-88.124;2023-02-21T10:49:20;97610.05;;;-2.19;69.35
46642;BME280;32370;41.864;-88.124;2023-02-21T10:52:04;97628.79;;;-2.14;67.96
46642;BME280;32370;41.864;-88.124;2023-02-21T10:54:32;97629.45;;;-2.24;67.64
46642;BME280;32370;41.864;-88.124;2023-02-21T10:57:02;97637.44;;;-2.22;65.98
46642;BME280;32370;41.864;-88.124;2023-02-21T10:59:35;97633.96;;;-2.01;65.41
46642;BME280;32370;41.864;-88.124;2023-02-21T11:02:25;97648.27;;;-2.06;66.86
46642;BME280;32370;41.864;-88.124;2023-02-21T11:04:55;97654.89;;;-2.09;66.73
46642;BME280;32370;41.864;-88.124;2023-02-21T11:07:34;97668.19;;;-2.62;66.68
46642;BME280;32370;41.864;-88.124;2023-02-21T11:10:02;97673.65;;;-2.54;67.14
46642;BME280;32370;41.864;-88.124;2023-02-21T11:13:03;97690.00;;;-2.55;67.99
46642;BME280;32370;41.864;-88.124;2023-02-21T11:15:32;97694.53;;;-2.31;67.91
46642;BME280;32370;41.864;-88.124;2023-02-21T11:18:11;97692.01;;;-2.34;66.86
46642;BME280;32370;41.864;-88.124;2023-02-21T11:20:40;97704.13;;;-2.86;66.96
46642;BME280;32370;41.864;-88.124;2023-02-21T11:23:24;97712.34;;;-2.90;65.69
46642;BME280;32370;41.864;-88.124;2023-02-21T11:25:59;97724.92;;;-3.14;66.74
46642;BME280;32370;41.864;-88.124;2023-02-21T11:28:36;97720.76;;;-2.63;66.01
46642;BME280;32370;41.864;-88.124;2023-02-21T11:31:11;97743.15;;;-2.85;66.81
46642;BME280;32370;41.864;-88.124;2023-02-21T11:33:43;97757.55;;;-2.87;66.76
46642;BME280;32370;41.864;-88.124;2023-02-21T11:36:16;97742.92;;;-2.79;66.30
46642;BME280;32370;41.864;-88.124;2023-02-21T11:39:00;97756.10;;;-2.63;66.91
46642;BME280;32370;41.864;-88.124;2023-02-21T11:41:34;97770.28;;;-3.05;67.22
46642;BME280;32370;41.864;-88.124;2023-02-21T11:44:27;97767.35;;;-2.92;68.03
46642;BME280;32370;41.864;-88.124;2023-02-21T11:47:04;97771.88;;;-3.04;68.08
46642;BME280;32370;41.864;-88.124;2023-02-21T11:49:40;97769.69;;;-3.04;67.79
46642;BME280;32370;41.864;-88.124;2023-02-21T11:52:12;97771.71;;;-3.24;68.41
46642;BME280;32370;41.864;-88.124;2023-02-21T11:54:42;97771.18;;;-3.07;69.91
46642;BME280;32370;41.864;-88.124;2023-02-21T11:57:16;97794.96;;;-3.17;69.79
46642;BME280;32370;41.864;-88.124;2023-02-21T11:59:53;97796.17;;;-3.19;70.35
46642;BME280;32370;41.864;-88.124;2023-02-21T12:02:52;97819.52;;;-2.92;71.32
46642;BME280;32370;41.864;-88.124;2023-02-21T12:05:32;97832.21;;;-3.20;71.86
46642;BME280;32370;41.864;-88.124;2023-02-21T12:08:19;97834.54;;;-3.07;70.97
46642;BME280;32370;41.864;-88.124;2023-02-21T12:10:59;97839.39;;;-3.86;68.95
46642;BME280;32370;41.864;-88.124;2023-02-21T12:13:37;97840.44;;;-4.10;68.24
46642;BME280;32370;41.864;-88.124;2023-02-21T12:16:17;97849.47;;;-4.24;67.41
46642;BME280;32370;41.864;-88.124;2023-02-21T12:19:01;97876.41;;;-3.96;64.85
46642;BME280;32370;41.864;-88.124;2023-02-21T12:21:47;97889.16;;;-4.26;65.41
46642;BME280;32370;41.864;-88.124;2023-02-21T12:24:35;97896.73;;;-4.22;66.46
46642;BME280;32370;41.864;-88.124;2023-02-21T12:27:11;97912.76;;;-4.35;66.66
46642;BME280;32370;41.864;-88.124;2023-02-21T12:29:52;97914.88;;;-4.22;66.24
46642;BME280;32370;41.864;-88.124;2023-02-21T12:32:47;97918.36;;;-4.61;66.06
46642;BME280;32370;41.864;-88.124;2023-02-21T12:35:47;97923.94;;;-5.36;66.93
46642;BME280;32370;41.864;-88.124;2023-02-21T12:38:26;97930.40;;;-5.09;66.86
46642;BME280;32370;41.864;-88.124;2023-02-21T12:41:04;97939.74;;;-5.12;67.23
46642;BME280;32370;41.864;-88.124;2023-02-21T12:43:43;97938.01;;;-5.07;67.46
46642;BME280;32370;41.864;-88.124;2023-02-21T12:46:20;97921.55;;;-5.13;67.91
46642;BME280;32370;41.864;-88.124;2023-02-21T12:48:55;97936.68;;;-5.33;68.12
46642;BME280;32370;41.864;-88.124;2023-02-21T12:51:27;97954.79;;;-5.85;68.86
46642;BME280;32370;41.864;-88.124;2023-02-21T12:54:01;97961.45;;;-5.69;69.37
46642;BME280;32370;41.864;-88.124;2023-02-21T12:56:36;97962.72;;;-5.81;68.33
46642;BME280;32370;41.864;-88.124;2023-02-21T12:59:10;97974.41;;;-6.02;68.11
46642;BME280;32370;41.864;-88.124;2023-02-21T13:01:46;97981.17;;;-6.08;67.94
46642;BME280;32370;41.864;-88.124;2023-02-21T13:04:23;97979.11;;;-6.07;68.84
46642;BME280;32370;41.864;-88.124;2023-02-21T13:06:59;97984.42;;;-6.56;68.52
46642;BME280;32370;41.864;-88.124;2023-02-21T13:09:34;97988.96;;;-6.29;68.03
46642;BME280;32370;41.864;-88.124;2023-02-21T13:12:08;97998.32;;;-6.41;68.91
46642;BME280;32370;41.864;-88.124;2023-02-21T13:14:41;98013.22;;;-6.58;68.24
46642;BME280;32370;41.864;-88.124;2023-02-21T13:17:12;98028.58;;;-6.43;68.62
46642;BME280;32370;41.864;-88.124;2023-02-21T13:19:44;98029.29;;;-6.65;68.53
46642;BME280;32370;41.864;-88.124;2023-02-21T13:23:17;98045.29;;;-5.50;67.26
46642;BME280;32370;41.864;-88.124;2023-02-21T13:25:59;98050.87;;;-6.30;67.09
46642;BME280;32370;41.864;-88.124;2023-02-21T13:28:31;98065.67;;;-6.34;66.97
46642;BME280;32370;41.864;-88.124;2023-02-21T13:31:02;98073.51;;;-6.37;66.49
46642;BME280;32370;41.864;-88.124;2023-02-21T13:33:37;98079.49;;;-6.38;65.92
46642;BME280;32370;41.864;-88.124;2023-02-21T13:36:20;98081.60;;;-6.45;65.80
46642;BME280;32370;41.864;-88.124;2023-02-21T13:38:59;98094.77;;;-6.27;66.05
46642;BME280;32370;41.864;-88.124;2023-02-21T13:41:32;98085.77;;;-6.35;65.67
46642;BME280;32370;41.864;-88.124;2023-02-21T13:44:05;98074.96;;;-6.45;63.23
46642;BME280;32370;41.864;-88.124;2023-02-21T13:47:11;98084.04;;;-5.60;63.20
46642;BME280;32370;41.864;-88.124;2023-02-21T13:49:49;98111.35;;;-6.27;62.86
46642;BME280;32370;41.864;-88.124;2023-02-21T13:52:36;98116.49;;;-6.40;62.03
46642;BME280;32370;41.864;-88.124;2023-02-21T13:55:23;98119.81;;;-6.32;62.28
46642;BME280;32370;41.864;-88.124;2023-02-21T13:58:32;98123.41;;;-6.18;62.80
46642;BME280;32370;41.864;-88.124;2023-02-21T14:05:00;98130.48;;;-6.17;63.66
46642;BME280;32370;41.864;-88.124;2023-02-21T14:07:47;98120.12;;;-6.55;64.35
46642;BME280;32370;41.864;-88.124;2023-02-21T14:10:24;98138.89;;;-6.04;65.26
46642;BME280;32370;41.864;-88.124;2023-02-21T14:12:58;98147.10;;;-6.06;61.12
46642;BME280;32370;41.864;-88.124;2023-02-21T14:15:38;98149.13;;;-6.31;60.52
46642;BME280;32370;41.864;-88.124;2023-02-21T14:18:15;98149.09;;;-5.80;61.71
46642;BME280;32370;41.864;-88.124;2023-02-21T14:20:47;98154.29;;;-6.24;60.64
46642;BME280;32370;41.864;-88.124;2023-02-21T14:23:16;98151.56;;;-6.13;60.89
46642;BME280;32370;41.864;-88.124;2023-02-21T14:25:55;98155.40;;;-5.84;59.66
46642;BME280;32370;41.864;-88.124;2023-02-21T14:29:09;98155.63;;;-5.06;61.72
46642;BME280;32370;41.864;-88.124;2023-02-21T14:31:56;98160.47;;;-5.89;60.03
46642;BME280;32370;41.864;-88.124;2023-02-21T14:34:34;98158.34;;;-5.89;60.04
46642;BME280;32370;41.864;-88.124;2023-02-21T14:37:11;98169.85;;;-5.51;59.32
46642;BME280;32370;41.864;-88.124;2023-02-21T14:39:44;98180.92;;;-5.95;60.34
46642;BME280;32370;41.864;-88.124;2023-02-21T14:42:36;98182.21;;;-5.60;61.00
46642;BME280;32370;41.864;-88.124;2023-02-21T14:45:25;98187.77;;;-5.56;61.62
46642;BME280;32370;41.864;-88.124;2023-02-21T14:48:19;98192.70;;;-5.84;61.68
46642;BME280;32370;41.864;-88.124;2023-02-21T14:51:13;98210.84;;;-5.52;62.39
46642;BME280;32370;41.864;-88.124;2023-02-21T14:54:08;98231.37;;;-5.32;61.19
46642;BME280;32370;41.864;-88.124;2023-02-21T14:56:54;98240.27;;;-5.27;60.98
46642;BME280;32370;41.864;-88.124;2023-02-21T14:59:58;98237.70;;;-5.41;60.19
46642;BME280;32370;41.864;-88.124;2023-02-21T15:02:40;98238.33;;;-5.32;60.27
46642;BME280;32370;41.864;-88.124;2023-02-21T15:05:16;98238.24;;;-5.32;60.51
46642;BME280;32370;41.864;-88.124;2023-02-21T15:07:55;98248.14;;;-5.01;60.27
46642;BME280;32370;41.864;-88.124;2023-02-21T15:10:26;98249.53;;;-5.45;58.89
46642;BME280;32370;41.864;-88.124;2023-02-21T15:12:57;98251.88;;;-5.14;58.68
46642;BME280;32370;41.864;-88.124;2023-02-21T15:15:28;98253.05;;;-5.20;59.08
46642;BME280;32370;41.864;-88.124;2023-02-21T15:18:01;98248.54;;;-5.32;58.53
46642;BME280;32370;41.864;-88.124;2023-02-21T15:20:31;98249.07;;;-5.17;59.15
46642;BME280;32370;41.864;-88.124;2023-02-21T15:23:03;98261.23;;;-5.26;58.88